Cedar Flat, California
Current Conditions -  °F | °C
As of 6:50 AM on Friday 19 Dec 2014 (Local Time) from KTRK Reporting Station
Broken Clouds Broken Clouds  
Wind Chill: 27°   Ceiling: 3700
Heat Index: 37°   Visibility: 10mi
Dew Point: 21°   Wind: 18mph
Humidity: 52%   Direction: 190°S
Pressure: 30.09"   Gusts: 30mph
Location:  39.2392°N, 120.102°W
Report Text: KTRK 191450Z 19016G26KT 10SM BKN037 03/M06 A3009 RMK NOSPECI FIRST 24HR MAX 0061 MIN 1006
Loading
Personal Weather Stations






























Interactive Weather Map New forecast layout! Learn more

10-Day Weather Forecast

Advertisements
Track Severe Weather on mobile